sensor_id;sensor_type;location;lat;lon;timestamp;pressure;altitude;pressure_sealevel;temperature;humidity
3812;BME280;1921;49.368;11.068;2022-07-15T00:02:05;97994.88;;;18.63;55.09
3812;BME280;1921;49.368;11.068;2022-07-15T00:04:32;97927.31;;;18.12;55.67
3812;BME280;1921;49.368;11.068;2022-07-15T00:06:58;97965.13;;;18.31;55.45
3812;BME280;1921;49.368;11.068;2022-07-15T00:09:23;97927.09;;;17.95;55.76
3812;BME280;1921;49.368;11.068;2022-07-15T00:12:10;97994.91;;;18.38;55.55
3812;BME280;1921;49.368;11.068;2022-07-15T00:14:36;97986.53;;;18.23;55.72
3812;BME280;1921;49.368;11.068;2022-07-15T00:17:03;97999.22;;;18.14;56.68
3812;BME280;1921;49.368;11.068;2022-07-15T00:19:29;97947.13;;;17.78;57.10
3812;BME280;1921;49.368;11.068;2022-07-15T00:21:55;97993.22;;;18.00;57.15
3812;BME280;1921;49.368;11.068;2022-07-15T00:24:20;97964.38;;;17.74;57.99
3812;BME280;1921;49.368;11.068;2022-07-15T00:26:46;97969.91;;;17.66;58.59
3812;BME280;1921;49.368;11.068;2022-07-15T00:29:13;97963.53;;;17.48;58.42
3812;BME280;1921;49.368;11.068;2022-07-15T00:31:39;97945.56;;;17.32;58.79
3812;BME280;1921;49.368;11.068;2022-07-15T00:34:04;97961.22;;;17.27;59.22
3812;BME280;1921;49.368;11.068;2022-07-15T00:36:30;97945.44;;;17.14;60.02
3812;BME280;1921;49.368;11.068;2022-07-15T00:38:56;97932.53;;;17.06;60.25
3812;BME280;1921;49.368;11.068;2022-07-15T00:41:23;97961.09;;;17.09;60.43
3812;BME280;1921;49.368;11.068;2022-07-15T00:43:49;97957.84;;;17.07;60.39
3812;BME280;1921;49.368;11.068;2022-07-15T00:46:23;97940.75;;;16.84;61.33
3812;BME280;1921;49.368;11.068;2022-07-15T00:48:49;97956.91;;;16.88;61.46
3812;BME280;1921;49.368;11.068;2022-07-15T00:51:15;97941.59;;;16.72;62.07
3812;BME280;1921;49.368;11.068;2022-07-15T00:53:41;97994.41;;;16.97;62.07
3812;BME280;1921;49.368;11.068;2022-07-15T00:56:09;97953.75;;;16.66;62.40
3812;BME280;1921;49.368;11.068;2022-07-15T00:58:37;97948.69;;;16.58;62.95
3812;BME280;1921;49.368;11.068;2022-07-15T01:01:07;98013.25;;;16.93;63.38
3812;BME280;1921;49.368;11.068;2022-07-15T01:03:34;97989.59;;;16.74;63.39
3812;BME280;1921;49.368;11.068;2022-07-15T01:06:00;98001.31;;;16.84;63.59
3812;BME280;1921;49.368;11.068;2022-07-15T01:08:26;97985.53;;;16.58;63.86
3812;BME280;1921;49.368;11.068;2022-07-15T01:10:52;97989.97;;;16.64;64.00
3812;BME280;1921;49.368;11.068;2022-07-15T01:13:19;97977.28;;;16.48;63.84
3812;BME280;1921;49.368;11.068;2022-07-15T01:15:46;97992.28;;;16.34;65.54
3812;BME280;1921;49.368;11.068;2022-07-15T01:18:15;97968.00;;;16.12;65.54
3812;BME280;1921;49.368;11.068;2022-07-15T01:20:42;98007.28;;;16.40;65.66
3812;BME280;1921;49.368;11.068;2022-07-15T01:23:09;97934.63;;;15.86;66.53
3812;BME280;1921;49.368;11.068;2022-07-15T01:25:35;97974.88;;;16.06;66.31
3812;BME280;1921;49.368;11.068;2022-07-15T01:28:01;98009.72;;;16.22;67.10
3812;BME280;1921;49.368;11.068;2022-07-15T01:30:27;97972.00;;;15.55;69.35
3812;BME280;1921;49.368;11.068;2022-07-15T01:32:53;98021.44;;;15.86;68.96
3812;BME280;1921;49.368;11.068;2022-07-15T01:35:19;97988.84;;;15.67;69.00
3812;BME280;1921;49.368;11.068;2022-07-15T01:37:45;97980.09;;;15.60;68.41
3812;BME280;1921;49.368;11.068;2022-07-15T01:40:12;98025.66;;;15.80;68.43
3812;BME280;1921;49.368;11.068;2022-07-15T01:42:38;97969.56;;;15.47;68.88
3812;BME280;1921;49.368;11.068;2022-07-15T01:45:07;97975.81;;;15.46;68.89
3812;BME280;1921;49.368;11.068;2022-07-15T01:47:44;97989.19;;;15.57;69.14
3812;BME280;1921;49.368;11.068;2022-07-15T01:50:10;97997.28;;;15.56;69.11
3812;BME280;1921;49.368;11.068;2022-07-15T01:52:36;97986.53;;;15.44;69.47
3812;BME280;1921;49.368;11.068;2022-07-15T01:55:05;97990.97;;;15.50;69.95
3812;BME280;1921;49.368;11.068;2022-07-15T01:57:31;97976.41;;;15.41;69.88
3812;BME280;1921;49.368;11.068;2022-07-15T01:59:57;98026.25;;;15.69;70.07
3812;BME280;1921;49.368;11.068;2022-07-15T02:02:23;97954.53;;;15.27;69.75
3812;BME280;1921;49.368;11.068;2022-07-15T02:04:49;97990.16;;;15.43;69.57
3812;BME280;1921;49.368;11.068;2022-07-15T02:07:15;97982.44;;;15.28;69.77
3812;BME280;1921;49.368;11.068;2022-07-15T02:09:41;97979.59;;;15.23;70.20
3812;BME280;1921;49.368;11.068;2022-07-15T02:12:19;97977.78;;;15.24;70.18
3812;BME280;1921;49.368;11.068;2022-07-15T02:14:45;97973.91;;;15.13;69.80
3812;BME280;1921;49.368;11.068;2022-07-15T02:17:17;98038.91;;;15.52;70.26
3812;BME280;1921;49.368;11.068;2022-07-15T02:19:46;97973.69;;;15.08;69.38
3812;BME280;1921;49.368;11.068;2022-07-15T02:22:12;97938.22;;;14.84;69.08
3812;BME280;1921;49.368;11.068;2022-07-15T02:24:38;98002.59;;;15.15;69.43
3812;BME280;1921;49.368;11.068;2022-07-15T02:27:04;97991.03;;;15.02;70.22
3812;BME280;1921;49.368;11.068;2022-07-15T02:29:29;98022.44;;;15.24;70.59
3812;BME280;1921;49.368;11.068;2022-07-15T02:31:55;98004.19;;;15.09;70.60
3812;BME280;1921;49.368;11.068;2022-07-15T02:34:21;97991.59;;;14.91;70.67
3812;BME280;1921;49.368;11.068;2022-07-15T02:36:47;97933.84;;;14.50;70.79
3812;BME280;1921;49.368;11.068;2022-07-15T02:39:12;97968.66;;;14.72;70.95
3812;BME280;1921;49.368;11.068;2022-07-15T02:41:38;97979.81;;;14.74;70.73
3812;BME280;1921;49.368;11.068;2022-07-15T02:44:04;97946.19;;;14.28;74.23
3812;BME280;1921;49.368;11.068;2022-07-15T02:46:31;98017.09;;;14.35;76.23
3812;BME280;1921;49.368;11.068;2022-07-15T02:48:57;98048.00;;;14.39;77.06
3812;BME280;1921;49.368;11.068;2022-07-15T02:51:22;97986.19;;;14.09;76.62
3812;BME280;1921;49.368;11.068;2022-07-15T02:53:48;97976.25;;;13.97;76.41
3812;BME280;1921;49.368;11.068;2022-07-15T02:56:15;98031.13;;;14.27;75.99
3812;BME280;1921;49.368;11.068;2022-07-15T02:58:41;97994.03;;;14.02;76.67
3812;BME280;1921;49.368;11.068;2022-07-15T03:01:06;97995.59;;;13.96;77.26
3812;BME280;1921;49.368;11.068;2022-07-15T03:03:32;97992.78;;;13.77;77.98
3812;BME280;1921;49.368;11.068;2022-07-15T03:05:58;98005.91;;;13.77;78.00
3812;BME280;1921;49.368;11.068;2022-07-15T03:08:25;98039.09;;;13.91;77.67
3812;BME280;1921;49.368;11.068;2022-07-15T03:10:51;98045.34;;;13.90;77.77
3812;BME280;1921;49.368;11.068;2022-07-15T03:13:17;98020.25;;;13.81;78.89
3812;BME280;1921;49.368;11.068;2022-07-15T03:15:43;97999.47;;;13.58;78.74
3812;BME280;1921;49.368;11.068;2022-07-15T03:18:09;98019.88;;;13.62;78.92
3812;BME280;1921;49.368;11.068;2022-07-15T03:20:34;98055.78;;;13.83;78.80
3812;BME280;1921;49.368;11.068;2022-07-15T03:23:01;98029.16;;;13.65;79.05
3812;BME280;1921;49.368;11.068;2022-07-15T03:25:26;98070.41;;;13.92;79.18
3812;BME280;1921;49.368;11.068;2022-07-15T03:27:52;98001.75;;;13.46;79.40
3812;BME280;1921;49.368;11.068;2022-07-15T03:30:18;98031.78;;;13.65;79.42
3812;BME280;1921;49.368;11.068;2022-07-15T03:32:44;98070.75;;;13.89;79.74
3812;BME280;1921;49.368;11.068;2022-07-15T03:35:10;98034.16;;;13.60;79.80
3812;BME280;1921;49.368;11.068;2022-07-15T03:37:35;98064.16;;;13.93;80.17
3812;BME280;1921;49.368;11.068;2022-07-15T03:40:01;98032.63;;;13.87;80.20
3812;BME280;1921;49.368;11.068;2022-07-15T03:42:27;98015.13;;;13.94;79.07
3812;BME280;1921;49.368;11.068;2022-07-15T03:44:52;98033.84;;;14.12;77.47
3812;BME280;1921;49.368;11.068;2022-07-15T03:47:18;98059.84;;;14.28;77.09
3812;BME280;1921;49.368;11.068;2022-07-15T03:49:44;98018.75;;;13.93;77.50
3812;BME280;1921;49.368;11.068;2022-07-15T03:52:10;98035.72;;;13.97;77.25
3812;BME280;1921;49.368;11.068;2022-07-15T03:54:35;98037.78;;;14.01;77.81
3812;BME280;1921;49.368;11.068;2022-07-15T03:57:01;98054.25;;;14.38;76.97
3812;BME280;1921;49.368;11.068;2022-07-15T03:59:27;98008.94;;;14.51;75.13
3812;BME280;1921;49.368;11.068;2022-07-15T04:01:53;98078.22;;;15.19;72.89
3812;BME280;1921;49.368;11.068;2022-07-15T04:04:19;98055.72;;;15.58;72.22
3812;BME280;1921;49.368;11.068;2022-07-15T04:06:44;98025.06;;;15.78;70.04
3812;BME280;1921;49.368;11.068;2022-07-15T04:09:11;97944.69;;;15.56;67.15
3812;BME280;1921;49.368;11.068;2022-07-15T04:11:38;98052.19;;;16.45;66.53
3812;BME280;1921;49.368;11.068;2022-07-15T04:14:10;98052.19;;;16.38;67.14
3812;BME280;1921;49.368;11.068;2022-07-15T04:16:37;98092.06;;;17.15;65.49
3812;BME280;1921;49.368;11.068;2022-07-15T04:19:02;98057.25;;;17.44;64.10
3812;BME280;1921;49.368;11.068;2022-07-15T04:21:28;98000.56;;;17.22;62.98
3812;BME280;1921;49.368;11.068;2022-07-15T04:23:54;98061.78;;;18.07;61.98
3812;BME280;1921;49.368;11.068;2022-07-15T04:26:19;98061.59;;;17.77;61.37
3812;BME280;1921;49.368;11.068;2022-07-15T04:28:45;98060.00;;;18.01;61.68
3812;BME280;1921;49.368;11.068;2022-07-15T04:31:11;98056.63;;;18.44;59.22
3812;BME280;1921;49.368;11.068;2022-07-15T04:33:37;98060.09;;;18.69;58.91
3812;BME280;1921;49.368;11.068;2022-07-15T04:36:02;98042.13;;;18.78;57.54
3812;BME280;1921;49.368;11.068;2022-07-15T04:38:28;98089.13;;;19.68;55.20
3812;BME280;1921;49.368;11.068;2022-07-15T04:40:54;98067.38;;;19.96;54.51
3812;BME280;1921;49.368;11.068;2022-07-15T04:43:20;98074.03;;;20.40;52.65
3812;BME280;1921;49.368;11.068;2022-07-15T04:45:45;98045.91;;;20.27;52.64
3812;BME280;1921;49.368;11.068;2022-07-15T04:48:11;98059.66;;;20.83;50.96
3812;BME280;1921;49.368;11.068;2022-07-15T04:50:55;98056.94;;;21.30;49.63
3812;BME280;1921;49.368;11.068;2022-07-15T04:53:23;98030.88;;;21.27;48.50
3812;BME280;1921;49.368;11.068;2022-07-15T04:55:49;98026.03;;;21.23;48.22
3812;BME280;1921;49.368;11.068;2022-07-15T04:58:15;98063.78;;;21.54;48.61
3812;BME280;1921;49.368;11.068;2022-07-15T05:00:45;98043.88;;;21.40;48.80
3812;BME280;1921;49.368;11.068;2022-07-15T05:03:12;98062.41;;;22.09;47.45
3812;BME280;1921;49.368;11.068;2022-07-15T05:05:37;98067.81;;;22.64;46.65
3812;BME280;1921;49.368;11.068;2022-07-15T05:08:04;98068.72;;;23.08;45.58
3812;BME280;1921;49.368;11.068;2022-07-15T05:10:30;98072.13;;;22.48;46.51
3812;BME280;1921;49.368;11.068;2022-07-15T05:12:55;98075.28;;;22.84;45.83
3812;BME280;1921;49.368;11.068;2022-07-15T05:15:23;98053.34;;;23.32;44.30
3812;BME280;1921;49.368;11.068;2022-07-15T05:17:48;98072.00;;;23.81;43.50
3812;BME280;1921;49.368;11.068;2022-07-15T05:20:14;98040.44;;;23.02;44.12
3812;BME280;1921;49.368;11.068;2022-07-15T05:22:40;98061.00;;;23.73;42.44
3812;BME280;1921;49.368;11.068;2022-07-15T05:25:06;98071.25;;;23.86;42.02
3812;BME280;1921;49.368;11.068;2022-07-15T05:27:32;98112.03;;;24.13;40.98
3812;BME280;1921;49.368;11.068;2022-07-15T05:29:58;98068.34;;;23.87;41.63
3812;BME280;1921;49.368;11.068;2022-07-15T05:32:24;98073.00;;;23.75;41.89
3812;BME280;1921;49.368;11.068;2022-07-15T05:34:49;98054.75;;;23.40;42.74
3812;BME280;1921;49.368;11.068;2022-07-15T05:37:15;98069.94;;;22.62;44.28
3812;BME280;1921;49.368;11.068;2022-07-15T05:39:41;98070.94;;;24.09;41.75
3812;BME280;1921;49.368;11.068;2022-07-15T05:42:20;98060.94;;;23.46;42.71
3812;BME280;1921;49.368;11.068;2022-07-15T05:44:46;98109.44;;;23.92;41.88
3812;BME280;1921;49.368;11.068;2022-07-15T05:47:12;98083.97;;;23.13;42.87
3812;BME280;1921;49.368;11.068;2022-07-15T05:49:38;98092.13;;;23.67;42.01
3812;BME280;1921;49.368;11.068;2022-07-15T05:52:04;98079.69;;;23.78;41.36
3812;BME280;1921;49.368;11.068;2022-07-15T05:54:30;98082.84;;;23.53;42.12
3812;BME280;1921;49.368;11.068;2022-07-15T05:56:55;98077.63;;;22.97;42.89
3812;BME280;1921;49.368;11.068;2022-07-15T05:59:21;98092.25;;;23.82;41.96
3812;BME280;1921;49.368;11.068;2022-07-15T06:01:47;98096.38;;;24.49;41.17
3812;BME280;1921;49.368;11.068;2022-07-15T06:04:12;98089.44;;;24.85;40.17
3812;BME280;1921;49.368;11.068;2022-07-15T06:06:39;98089.63;;;25.89;38.65
3812;BME280;1921;49.368;11.068;2022-07-15T06:09:05;98075.25;;;26.46;36.93
3812;BME280;1921;49.368;11.068;2022-07-15T06:11:31;98131.09;;;26.01;38.21
3812;BME280;1921;49.368;11.068;2022-07-15T06:13:56;98024.66;;;25.83;37.77
3812;BME280;1921;49.368;11.068;2022-07-15T06:16:22;98118.13;;;27.56;35.50
3812;BME280;1921;49.368;11.068;2022-07-15T06:18:48;98103.94;;;27.51;35.42
3812;BME280;1921;49.368;11.068;2022-07-15T06:21:16;98091.91;;;28.03;34.58
3812;BME280;1921;49.368;11.068;2022-07-15T06:23:41;98109.38;;;28.68;33.62
3812;BME280;1921;49.368;11.068;2022-07-15T06:26:08;98097.25;;;28.47;33.29
3812;BME280;1921;49.368;11.068;2022-07-15T06:28:35;98096.34;;;26.93;35.80
3812;BME280;1921;49.368;11.068;2022-07-15T06:31:01;98119.94;;;26.61;36.01
3812;BME280;1921;49.368;11.068;2022-07-15T06:33:27;98109.22;;;26.91;36.13
3812;BME280;1921;49.368;11.068;2022-07-15T06:35:53;98076.16;;;27.91;34.14
3812;BME280;1921;49.368;11.068;2022-07-15T06:38:20;98123.69;;;28.88;32.24
3812;BME280;1921;49.368;11.068;2022-07-15T06:40:45;98101.63;;;28.67;32.79
3812;BME280;1921;49.368;11.068;2022-07-15T06:43:11;98066.28;;;27.86;33.87
3812;BME280;1921;49.368;11.068;2022-07-15T06:45:37;98106.28;;;29.14;32.48
3812;BME280;1921;49.368;11.068;2022-07-15T06:48:03;98133.09;;;28.90;33.25
3812;BME280;1921;49.368;11.068;2022-07-15T06:50:29;98106.50;;;24.52;38.92
3812;BME280;1921;49.368;11.068;2022-07-15T06:52:54;98104.38;;;24.86;39.06
3812;BME280;1921;49.368;11.068;2022-07-15T06:55:20;98079.69;;;22.40;44.02
3812;BME280;1921;49.368;11.068;2022-07-15T06:57:46;98112.78;;;24.09;41.56
3812;BME280;1921;49.368;11.068;2022-07-15T07:00:12;98082.63;;;25.72;38.31
3812;BME280;1921;49.368;11.068;2022-07-15T07:02:40;98085.34;;;24.40;39.63
3812;BME280;1921;49.368;11.068;2022-07-15T07:05:07;98087.00;;;23.44;41.48
3812;BME280;1921;49.368;11.068;2022-07-15T07:07:35;98070.78;;;23.45;40.21
3812;BME280;1921;49.368;11.068;2022-07-15T07:10:01;98051.78;;;22.59;42.17
3812;BME280;1921;49.368;11.068;2022-07-15T07:12:27;98100.72;;;23.74;40.51
3812;BME280;1921;49.368;11.068;2022-07-15T07:14:53;98121.50;;;24.95;38.92
3812;BME280;1921;49.368;11.068;2022-07-15T07:17:19;98096.16;;;25.50;37.36
3812;BME280;1921;49.368;11.068;2022-07-15T07:19:45;98113.22;;;26.89;34.51
3812;BME280;1921;49.368;11.068;2022-07-15T07:22:11;98068.28;;;26.75;34.42
3812;BME280;1921;49.368;11.068;2022-07-15T07:24:37;98092.81;;;27.28;33.04
3812;BME280;1921;49.368;11.068;2022-07-15T07:27:03;98144.22;;;26.18;35.43
3812;BME280;1921;49.368;11.068;2022-07-15T07:29:28;98115.88;;;26.17;35.86
3812;BME280;1921;49.368;11.068;2022-07-15T07:31:54;98089.94;;;23.03;38.40
3812;BME280;1921;49.368;11.068;2022-07-15T07:34:20;98095.53;;;22.18;40.79
3812;BME280;1921;49.368;11.068;2022-07-15T07:36:47;98049.53;;;23.28;40.41
3812;BME280;1921;49.368;11.068;2022-07-15T07:39:14;98091.00;;;25.23;36.45
3812;BME280;1921;49.368;11.068;2022-07-15T07:41:40;98095.59;;;24.96;37.36
3812;BME280;1921;49.368;11.068;2022-07-15T07:44:07;98035.94;;;26.16;34.23
3812;BME280;1921;49.368;11.068;2022-07-15T07:46:34;98003.16;;;27.00;32.07
3812;BME280;1921;49.368;11.068;2022-07-15T07:49:00;98080.66;;;28.40;31.18
3812;BME280;1921;49.368;11.068;2022-07-15T07:51:25;98071.19;;;29.06;29.71
3812;BME280;1921;49.368;11.068;2022-07-15T07:53:51;98076.13;;;30.03;28.29
3812;BME280;1921;49.368;11.068;2022-07-15T07:56:17;98061.88;;;29.65;28.24
3812;BME280;1921;49.368;11.068;2022-07-15T07:58:43;98084.00;;;27.13;31.46
3812;BME280;1921;49.368;11.068;2022-07-15T08:01:09;98075.22;;;26.87;33.01
3812;BME280;1921;49.368;11.068;2022-07-15T08:03:34;98108.13;;;28.61;29.70
3812;BME280;1921;49.368;11.068;2022-07-15T08:06:00;98083.13;;;27.32;32.62
3812;BME280;1921;49.368;11.068;2022-07-15T08:08:26;98074.13;;;25.81;32.87
3812;BME280;1921;49.368;11.068;2022-07-15T08:10:55;98042.63;;;26.18;31.97
3812;BME280;1921;49.368;11.068;2022-07-15T08:13:23;98050.38;;;26.61;30.86
3812;BME280;1921;49.368;11.068;2022-07-15T08:15:50;98066.66;;;29.25;28.92
3812;BME280;1921;49.368;11.068;2022-07-15T08:18:16;98063.56;;;29.13;28.65
3812;BME280;1921;49.368;11.068;2022-07-15T08:20:42;98088.66;;;27.56;30.58
3812;BME280;1921;49.368;11.068;2022-07-15T08:23:08;98104.03;;;28.68;30.04
3812;BME280;1921;49.368;11.068;2022-07-15T08:25:37;98093.50;;;29.49;28.72
3812;BME280;1921;49.368;11.068;2022-07-15T08:28:05;98086.38;;;28.33;28.57
3812;BME280;1921;49.368;11.068;2022-07-15T08:30:32;98110.31;;;28.59;28.54
3812;BME280;1921;49.368;11.068;2022-07-15T08:32:59;98086.91;;;28.64;28.19
3812;BME280;1921;49.368;11.068;2022-07-15T08:35:26;98090.19;;;27.78;29.03
3812;BME280;1921;49.368;11.068;2022-07-15T08:37:53;98050.41;;;27.46;29.51
3812;BME280;1921;49.368;11.068;2022-07-15T08:40:19;98073.19;;;28.95;27.40
3812;BME280;1921;49.368;11.068;2022-07-15T08:42:45;98051.78;;;29.94;25.92
3812;BME280;1921;49.368;11.068;2022-07-15T08:45:14;98103.47;;;29.24;26.76
3812;BME280;1921;49.368;11.068;2022-07-15T08:47:44;98070.50;;;27.43;29.83
3812;BME280;1921;49.368;11.068;2022-07-15T08:50:16;98070.81;;;25.58;32.63
3812;BME280;1921;49.368;11.068;2022-07-15T08:52:44;98080.94;;;24.56;33.60
3812;BME280;1921;49.368;11.068;2022-07-15T08:55:11;98070.34;;;23.75;35.11
3812;BME280;1921;49.368;11.068;2022-07-15T08:57:37;98059.06;;;25.49;32.98
3812;BME280;1921;49.368;11.068;2022-07-15T09:00:05;98056.97;;;23.97;34.08
3812;BME280;1921;49.368;11.068;2022-07-15T09:02:36;98070.81;;;23.23;36.15
3812;BME280;1921;49.368;11.068;2022-07-15T09:10:22;98062.81;;;23.23;36.89
3812;BME280;1921;49.368;11.068;2022-07-15T09:12:54;98073.47;;;23.67;35.20
3812;BME280;1921;49.368;11.068;2022-07-15T09:15:31;98092.28;;;24.74;34.41
3812;BME280;1921;49.368;11.068;2022-07-15T09:18:15;98115.34;;;26.20;32.54
3812;BME280;1921;49.368;11.068;2022-07-15T09:20:43;98088.88;;;26.75;30.99
3812;BME280;1921;49.368;11.068;2022-07-15T09:23:11;98048.28;;;25.23;32.43
3812;BME280;1921;49.368;11.068;2022-07-15T09:25:42;98059.38;;;23.72;35.56
3812;BME280;1921;49.368;11.068;2022-07-15T09:28:08;98076.47;;;25.67;33.59
3812;BME280;1921;49.368;11.068;2022-07-15T09:30:40;98061.03;;;26.81;30.79
3812;BME280;1921;49.368;11.068;2022-07-15T09:33:28;98112.44;;;27.68;29.65
3812;BME280;1921;49.368;11.068;2022-07-15T09:36:22;98088.78;;;28.93;27.05
3812;BME280;1921;49.368;11.068;2022-07-15T09:38:54;98106.94;;;29.49;27.64
3812;BME280;1921;49.368;11.068;2022-07-15T09:41:36;98100.28;;;29.89;26.70
3812;BME280;1921;49.368;11.068;2022-07-15T09:44:21;98091.31;;;30.32;25.34
3812;BME280;1921;49.368;11.068;2022-07-15T09:47:00;98066.66;;;30.57;25.13
3812;BME280;1921;49.368;11.068;2022-07-15T09:54:27;98077.09;;;28.50;27.79
3812;BME280;1921;49.368;11.068;2022-07-15T09:56:57;98082.41;;;25.79;31.03
3812;BME280;1921;49.368;11.068;2022-07-15T09:59:24;98095.59;;;26.62;29.20
3812;BME280;1921;49.368;11.068;2022-07-15T10:01:50;98093.44;;;26.28;29.85
3812;BME280;1921;49.368;11.068;2022-07-15T10:04:21;98063.72;;;25.94;30.08
3812;BME280;1921;49.368;11.068;2022-07-15T10:06:49;98085.06;;;27.22;30.31
3812;BME280;1921;49.368;11.068;2022-07-15T10:09:23;98102.47;;;28.62;27.76
3812;BME280;1921;49.368;11.068;2022-07-15T10:12:03;98103.47;;;30.29;25.64
3812;BME280;1921;49.368;11.068;2022-07-15T10:15:00;98115.44;;;27.56;27.94
3812;BME280;1921;49.368;11.068;2022-07-15T10:29:39;98048.31;;;23.36;34.48
3812;BME280;1921;49.368;11.068;2022-07-15T10:32:05;98050.78;;;22.99;35.59
3812;BME280;1921;49.368;11.068;2022-07-15T10:34:33;98093.00;;;23.78;35.02
3812;BME280;1921;49.368;11.068;2022-07-15T10:37:06;98060.66;;;25.55;32.72
3812;BME280;1921;49.368;11.068;2022-07-15T10:39:57;98067.84;;;27.38;29.90
3812;BME280;1921;49.368;11.068;2022-07-15T10:42:57;98031.69;;;28.82;27.76
3812;BME280;1921;49.368;11.068;2022-07-15T10:45:24;98041.28;;;26.26;30.71
3812;BME280;1921;49.368;11.068;2022-07-15T10:48:26;98079.50;;;26.82;30.71
3812;BME280;1921;49.368;11.068;2022-07-15T10:50:52;98067.28;;;28.35;28.15
3812;BME280;1921;49.368;11.068;2022-07-15T10:53:23;98097.34;;;29.43;27.56
3812;BME280;1921;49.368;11.068;2022-07-15T10:55:50;98100.38;;;29.12;27.91
3812;BME280;1921;49.368;11.068;2022-07-15T10:58:17;97985.78;;;26.98;29.29
3812;BME280;1921;49.368;11.068;2022-07-15T11:00:43;98040.63;;;27.00;29.48
3812;BME280;1921;49.368;11.068;2022-07-15T11:03:12;98058.41;;;26.35;30.83
3812;BME280;1921;49.368;11.068;2022-07-15T11:13:43;98046.88;;;23.99;34.70
3812;BME280;1921;49.368;11.068;2022-07-15T11:16:14;98041.88;;;22.88;36.39
3812;BME280;1921;49.368;11.068;2022-07-15T11:18:55;98037.78;;;23.68;35.11
3812;BME280;1921;49.368;11.068;2022-07-15T11:21:23;98094.28;;;24.24;34.54
3812;BME280;1921;49.368;11.068;2022-07-15T11:23:51;98029.38;;;23.81;35.50
3812;BME280;1921;49.368;11.068;2022-07-15T11:26:18;98080.44;;;24.59;33.48
3812;BME280;1921;49.368;11.068;2022-07-15T11:28:54;98081.09;;;24.39;33.70
3812;BME280;1921;49.368;11.068;2022-07-15T11:31:21;98032.47;;;23.02;35.29
3812;BME280;1921;49.368;11.068;2022-07-15T11:33:47;98049.63;;;23.82;34.74
3812;BME280;1921;49.368;11.068;2022-07-15T11:36:18;98020.00;;;24.75;34.01
3812;BME280;1921;49.368;11.068;2022-07-15T11:38:47;98022.66;;;24.75;32.98
3812;BME280;1921;49.368;11.068;2022-07-15T11:41:13;98044.50;;;24.67;34.08
3812;BME280;1921;49.368;11.068;2022-07-15T11:46:47;98011.19;;;27.10;29.80
3812;BME280;1921;49.368;11.068;2022-07-15T11:49:33;97994.50;;;27.24;29.24
3812;BME280;1921;49.368;11.068;2022-07-15T11:52:01;98047.31;;;27.68;28.37
3812;BME280;1921;49.368;11.068;2022-07-15T11:54:28;98036.78;;;27.37;28.45
3812;BME280;1921;49.368;11.068;2022-07-15T11:57:03;97994.94;;;28.20;27.16
3812;BME280;1921;49.368;11.068;2022-07-15T11:59:29;97994.78;;;28.93;26.11
3812;BME280;1921;49.368;11.068;2022-07-15T12:02:12;97991.97;;;29.46;26.08
3812;BME280;1921;49.368;11.068;2022-07-15T12:04:40;98002.56;;;29.56;25.80
3812;BME280;1921;49.368;11.068;2022-07-15T12:07:07;98006.75;;;29.24;26.18
3812;BME280;1921;49.368;11.068;2022-07-15T12:09:59;98000.63;;;29.62;25.92
3812;BME280;1921;49.368;11.068;2022-07-15T12:12:25;98019.28;;;29.91;25.18
3812;BME280;1921;49.368;11.068;2022-07-15T12:14:51;97976.19;;;30.28;24.66
3812;BME280;1921;49.368;11.068;2022-07-15T12:17:17;98005.56;;;30.06;25.32
3812;BME280;1921;49.368;11.068;2022-07-15T12:19:49;98033.34;;;30.67;24.39
3812;BME280;1921;49.368;11.068;2022-07-15T12:22:17;97983.88;;;27.97;26.11
3812;BME280;1921;49.368;11.068;2022-07-15T12:24:50;97964.38;;;27.47;27.78
3812;BME280;1921;49.368;11.068;2022-07-15T12:27:19;97976.31;;;29.10;25.49
3812;BME280;1921;49.368;11.068;2022-07-15T12:29:45;98003.78;;;27.91;27.07
3812;BME280;1921;49.368;11.068;2022-07-15T12:32:14;97974.94;;;26.53;29.82
3812;BME280;1921;49.368;11.068;2022-07-15T12:35:03;97999.03;;;25.87;30.83
3812;BME280;1921;49.368;11.068;2022-07-15T12:40:09;97992.59;;;26.39;30.06
3812;BME280;1921;49.368;11.068;2022-07-15T12:42:47;97961.56;;;26.33;29.62
3812;BME280;1921;49.368;11.068;2022-07-15T12:45:28;97974.16;;;27.28;28.36
3812;BME280;1921;49.368;11.068;2022-07-15T12:48:12;97991.94;;;26.88;29.16
3812;BME280;1921;49.368;11.068;2022-07-15T12:53:20;98002.88;;;27.12;28.99
3812;BME280;1921;49.368;11.068;2022-07-15T12:55:49;98006.38;;;27.07;29.60
3812;BME280;1921;49.368;11.068;2022-07-15T12:58:28;98001.03;;;25.24;30.91
3812;BME280;1921;49.368;11.068;2022-07-15T13:01:13;98031.00;;;27.15;28.76
3812;BME280;1921;49.368;11.068;2022-07-15T13:03:40;98021.75;;;27.46;27.90
3812;BME280;1921;49.368;11.068;2022-07-15T13:06:07;97971.72;;;28.63;27.30
3812;BME280;1921;49.368;11.068;2022-07-15T13:08:37;97981.34;;;28.69;27.20
3812;BME280;1921;49.368;11.068;2022-07-15T13:11:07;97986.06;;;30.33;25.30
3812;BME280;1921;49.368;11.068;2022-07-15T13:13:36;97996.09;;;30.74;23.66
3812;BME280;1921;49.368;11.068;2022-07-15T13:16:04;97976.22;;;30.56;24.47
3812;BME280;1921;49.368;11.068;2022-07-15T13:18:31;97956.06;;;30.67;24.42
3812;BME280;1921;49.368;11.068;2022-07-15T13:20:59;97947.59;;;30.00;24.12
3812;BME280;1921;49.368;11.068;2022-07-15T13:23:25;97969.78;;;29.92;24.97
3812;BME280;1921;49.368;11.068;2022-07-15T13:25:52;97939.69;;;29.57;25.54
3812;BME280;1921;49.368;11.068;2022-07-15T13:28:20;97958.22;;;28.73;27.45
3812;BME280;1921;49.368;11.068;2022-07-15T13:30:46;97970.63;;;28.11;28.48
3812;BME280;1921;49.368;11.068;2022-07-15T13:33:13;97938.38;;;27.87;27.95
3812;BME280;1921;49.368;11.068;2022-07-15T13:35:38;97958.91;;;29.27;26.30
3812;BME280;1921;49.368;11.068;2022-07-15T13:38:04;97962.56;;;28.93;25.78
3812;BME280;1921;49.368;11.068;2022-07-15T13:40:30;97962.34;;;29.70;25.75
3812;BME280;1921;49.368;11.068;2022-07-15T13:42:56;97941.75;;;29.04;26.23
3812;BME280;1921;49.368;11.068;2022-07-15T13:45:21;97976.63;;;29.84;25.30
3812;BME280;1921;49.368;11.068;2022-07-15T13:47:48;97947.16;;;28.27;27.09
3812;BME280;1921;49.368;11.068;2022-07-15T13:50:14;97937.78;;;27.95;27.55
3812;BME280;1921;49.368;11.068;2022-07-15T13:53:00;97958.41;;;27.60;28.69
3812;BME280;1921;49.368;11.068;2022-07-15T13:55:26;97951.97;;;26.01;30.94